createdAt,value
2018-08-09T00:00:10.502Z,7.70
2018-08-09T00:02:39.768Z,7.00
2018-08-09T00:05:08.341Z,8.50
2018-08-09T00:07:37.093Z,7.97
2018-08-09T00:10:07.419Z,7.80
2018-08-09T00:12:36.899Z,7.43
2018-08-09T00:15:06.517Z,8.17
2018-08-09T00:17:35.121Z,7.97
2018-08-09T00:20:04.706Z,8.50
2018-08-09T00:22:33.401Z,8.23
2018-08-09T00:25:01.979Z,8.50
2018-08-09T00:27:30.348Z,8.10
2018-08-09T00:29:59.412Z,8.30
2018-08-09T00:32:28.049Z,8.93
2018-08-09T00:34:57.239Z,9.50
2018-08-09T00:37:26.455Z,9.23
2018-08-09T00:39:56.683Z,9.20
2018-08-09T00:42:24.755Z,9.20
2018-08-09T00:44:55.022Z,9.53
2018-08-09T00:47:23.720Z,9.90
2018-08-09T00:49:53.178Z,9.90
2018-08-09T00:52:22.498Z,9.93
2018-08-09T00:54:51.110Z,10.73
2018-08-09T00:57:23.067Z,10.83
2018-08-09T00:59:52.520Z,10.63
2018-08-09T01:02:23.967Z,10.43
2018-08-09T01:04:52.586Z,11.67
2018-08-09T01:07:21.212Z,10.73
2018-08-09T01:09:50.546Z,11.63
2018-08-09T01:12:19.238Z,11.60
2018-08-09T01:14:47.895Z,12.00
2018-08-09T01:17:17.421Z,11.00
2018-08-09T01:19:46.177Z,10.93
2018-08-09T01:22:14.667Z,12.40
2018-08-09T01:24:43.823Z,11.30
2018-08-09T01:27:13.375Z,11.70
2018-08-09T01:29:42.030Z,11.53
2018-08-09T01:32:10.698Z,12.07
2018-08-09T01:34:39.338Z,11.07
2018-08-09T01:37:09.196Z,11.57
2018-08-09T01:39:38.078Z,11.70
2018-08-09T01:42:28.503Z,10.97
2018-08-09T01:44:57.811Z,11.77
2018-08-09T01:47:26.469Z,11.67
2018-08-09T01:49:55.504Z,11.70
2018-08-09T01:52:23.984Z,12.43
2018-08-09T01:54:52.263Z,11.93
2018-08-09T01:57:21.651Z,11.80
2018-08-09T01:59:50.943Z,12.27
2018-08-09T02:02:20.195Z,11.00
2018-08-09T02:04:50.441Z,11.60
2018-08-09T02:07:19.401Z,12.53
2018-08-09T02:09:47.926Z,11.33
2018-08-09T02:12:16.478Z,11.37
2018-08-09T02:14:45.922Z,11.07
2018-08-09T02:17:15.024Z,11.37
2018-08-09T02:19:43.732Z,11.40
2018-08-09T02:22:12.326Z,11.30
2018-08-09T02:24:41.322Z,11.47
2018-08-09T02:27:09.642Z,10.10
2018-08-09T02:29:39.195Z,11.90
2018-08-09T02:32:07.964Z,12.80
2018-08-09T02:34:36.797Z,13.70
2018-08-09T02:37:06.263Z,12.87
2018-08-09T02:39:34.328Z,13.53
2018-08-09T02:42:04.093Z,12.67
2018-08-09T02:44:32.785Z,12.30
2018-08-09T02:47:03.142Z,12.90
2018-08-09T02:49:31.798Z,11.80
2018-08-09T02:52:00.710Z,12.67
2018-08-09T02:54:29.844Z,12.30
2018-08-09T02:56:58.921Z,10.40
2018-08-09T02:59:27.539Z,11.57
2018-08-09T03:01:56.134Z,12.27
2018-08-09T03:04:26.854Z,11.90
2018-08-09T03:06:55.434Z,11.80
2018-08-09T03:09:24.323Z,11.63
2018-08-09T03:11:52.963Z,10.70
2018-08-09T03:14:22.318Z,11.03
2018-08-09T03:16:50.914Z,12.20
2018-08-09T03:19:19.535Z,11.40
2018-08-09T03:21:48.106Z,10.53
2018-08-09T03:24:17.287Z,12.20
2018-08-09T03:26:46.253Z,12.63
2018-08-09T03:29:14.938Z,12.30
2018-08-09T03:31:43.557Z,12.33
2018-08-09T03:34:12.946Z,13.27
2018-08-09T03:36:43.215Z,13.37
2018-08-09T03:39:12.450Z,13.30
2018-08-09T03:41:41.527Z,13.90
2018-08-09T03:44:11.017Z,12.90
2018-08-09T03:46:39.681Z,11.43
2018-08-09T03:49:10.201Z,12.37
2018-08-09T03:51:40.542Z,12.53
2018-08-09T03:54:10.693Z,11.60
2018-08-09T03:56:39.736Z,12.13
2018-08-09T03:59:09.236Z,12.17
2018-08-09T04:01:37.711Z,11.97
2018-08-09T04:04:07.908Z,12.60
2018-08-09T04:06:36.583Z,18.17
2018-08-09T04:09:09.475Z,14.20
2018-08-09T04:11:38.391Z,15.97
2018-08-09T04:14:07.159Z,14.33
2018-08-09T04:16:36.427Z,12.13
2018-08-09T04:19:05.111Z,10.23
2018-08-09T04:21:33.820Z,13.37
2018-08-09T04:24:02.231Z,11.30
2018-08-09T04:26:31.731Z,10.83
2018-08-09T04:29:01.266Z,10.47
2018-08-09T04:31:31.479Z,11.17
2018-08-09T04:34:01.539Z,12.13
2018-08-09T04:36:30.326Z,11.40
2018-08-09T04:38:59.635Z,12.47
2018-08-09T04:41:28.923Z,10.70
2018-08-09T04:43:57.291Z,11.00
2018-08-09T04:46:26.427Z,11.20
2018-08-09T04:48:54.618Z,11.43
2018-08-09T04:51:24.044Z,12.20
2018-08-09T04:53:53.678Z,12.10
2018-08-09T04:56:23.118Z,12.10
2018-08-09T04:58:51.862Z,12.73
2018-08-09T05:01:21.228Z,12.43
2018-08-09T05:03:50.940Z,13.43
2018-08-09T05:06:19.626Z,14.00
2018-08-09T05:08:49.157Z,12.80
2018-08-09T05:11:18.811Z,14.70
2018-08-09T05:13:48.398Z,15.30
2018-08-09T05:16:17.092Z,14.77
2018-08-09T05:18:46.379Z,14.23
2018-08-09T05:21:14.936Z,13.90
2018-08-09T05:23:43.783Z,14.37
2018-08-09T05:26:12.447Z,13.47
2018-08-09T05:28:41.062Z,14.93
2018-08-09T05:31:12.397Z,15.37
2018-08-09T05:33:41.788Z,14.93
2018-08-09T05:36:11.508Z,15.73
2018-08-09T05:38:41.206Z,15.30
2018-08-09T05:41:10.857Z,14.10
2018-08-09T05:43:39.124Z,15.57
2018-08-09T05:46:08.707Z,15.60
2018-08-09T05:48:37.280Z,14.70
2018-08-09T05:51:06.734Z,16.30
2018-08-09T05:53:35.422Z,15.40
2018-08-09T05:56:04.457Z,16.17
2018-08-09T05:58:34.068Z,16.20
2018-08-09T06:01:05.008Z,17.10
2018-08-09T06:03:34.025Z,17.47
2018-08-09T06:06:02.819Z,17.93
2018-08-09T06:08:31.387Z,18.20
2018-08-09T06:11:01.305Z,17.30
2018-08-09T06:13:33.677Z,17.27
2018-08-09T06:16:02.245Z,17.50
2018-08-09T06:18:30.900Z,16.10
2018-08-09T06:20:59.593Z,17.30
2018-08-09T06:23:28.241Z,16.50
2018-08-09T06:25:56.805Z,16.90
2018-08-09T06:28:28.556Z,18.00
2018-08-09T06:30:58.208Z,16.60
2018-08-09T06:33:27.927Z,17.60
2018-08-09T06:35:58.364Z,17.50
2018-08-09T06:38:27.886Z,17.67
2018-08-09T06:40:58.051Z,16.23
2018-08-09T06:43:29.711Z,17.07
2018-08-09T06:45:58.891Z,15.40
2018-08-09T06:48:28.318Z,15.40
2018-08-09T06:50:58.047Z,14.83
2018-08-09T06:53:27.051Z,14.23
2018-08-09T06:55:55.981Z,12.13
2018-08-09T06:58:25.434Z,13.37
2018-08-09T07:00:54.634Z,12.13
2018-08-09T07:03:23.217Z,12.93
2018-08-09T07:05:53.799Z,12.53
2018-08-09T07:08:25.048Z,11.93
2018-08-09T07:10:55.475Z,11.67
2018-08-09T07:13:24.837Z,16.17
2018-08-09T07:15:53.449Z,14.83
2018-08-09T07:18:22.968Z,13.27
2018-08-09T07:20:52.324Z,11.20
2018-08-09T07:23:20.989Z,11.40
2018-08-09T07:25:51.042Z,13.00
2018-08-09T07:28:19.371Z,12.13
2018-08-09T07:30:48.067Z,11.60
2018-08-09T07:33:17.308Z,11.93
2018-08-09T07:35:46.074Z,12.80
2018-08-09T07:38:14.590Z,12.50
2018-08-09T07:40:43.616Z,12.33
2018-08-09T07:43:12.964Z,12.50
2018-08-09T07:45:41.548Z,12.70
2018-08-09T07:48:11.970Z,11.23
2018-08-09T07:50:44.470Z,11.63
2018-08-09T07:53:13.302Z,11.50
2018-08-09T07:55:41.949Z,10.83
2018-08-09T07:58:11.237Z,10.67
2018-08-09T08:00:39.861Z,10.93
2018-08-09T08:03:08.186Z,12.03
2018-08-09T08:05:38.371Z,12.10
2018-08-09T08:08:08.306Z,12.57
2018-08-09T08:10:36.998Z,11.73
2018-08-09T08:13:05.710Z,12.17
2018-08-09T08:15:34.499Z,12.90
2018-08-09T08:18:03.392Z,11.87
2018-08-09T08:20:34.205Z,12.23
2018-08-09T08:23:04.083Z,10.97
2018-08-09T08:25:33.240Z,11.50
2018-08-09T08:28:02.430Z,10.10
2018-08-09T08:30:31.133Z,10.70
2018-08-09T08:33:00.985Z,10.43
2018-08-09T08:35:31.293Z,11.50
2018-08-09T08:38:01.913Z,12.20
2018-08-09T08:40:30.579Z,11.67
2018-08-09T08:43:00.407Z,12.60
2018-08-09T08:45:29.838Z,12.50
2018-08-09T08:47:59.589Z,12.50
2018-08-09T08:50:29.679Z,12.47
2018-08-09T08:52:59.028Z,11.80
2018-08-09T08:55:30.212Z,11.60
2018-08-09T08:57:59.684Z,10.93
2018-08-09T09:00:30.278Z,11.30
2018-08-09T09:02:59.820Z,11.90
2018-08-09T09:05:31.174Z,11.53
2018-08-09T09:08:01.445Z,13.00
2018-08-09T09:10:31.826Z,12.47
2018-08-09T09:13:00.852Z,13.03
2018-08-09T09:15:29.856Z,14.40
2018-08-09T09:17:58.526Z,14.23
2018-08-09T09:20:27.904Z,16.00
2018-08-09T09:22:56.633Z,15.77
2018-08-09T09:25:26.339Z,16.33
2018-08-09T09:27:55.113Z,15.70
2018-08-09T09:30:23.849Z,15.60
2018-08-09T09:32:52.805Z,14.97
2018-08-09T09:35:21.572Z,15.30
2018-08-09T09:37:50.290Z,14.37
2018-08-09T09:40:19.208Z,13.27
2018-08-09T09:42:47.978Z,10.80
2018-08-09T09:45:17.018Z,10.40
2018-08-09T09:47:45.699Z,8.63
2018-08-09T09:50:14.867Z,8.33
2018-08-09T09:52:43.595Z,8.20
2018-08-09T09:55:12.231Z,6.73
2018-08-09T09:57:41.097Z,6.30
2018-08-09T10:00:16.219Z,5.83
2018-08-09T10:02:45.435Z,6.20
2018-08-09T10:05:14.867Z,6.23
2018-08-09T10:07:44.019Z,5.90
2018-08-09T10:10:14.039Z,6.00
2018-08-09T10:12:42.680Z,6.50
2018-08-09T10:15:11.860Z,5.70
2018-08-09T10:17:40.718Z,6.00
2018-08-09T10:20:10.573Z,5.70
2018-08-09T10:22:39.349Z,6.30
2018-08-09T10:25:08.273Z,6.30
2018-08-09T10:27:37.077Z,5.27
2018-08-09T10:30:07.596Z,6.07
2018-08-09T10:32:37.263Z,6.40
2018-08-09T10:35:06.350Z,7.10
2018-08-09T10:37:37.797Z,7.37
2018-08-09T10:40:06.548Z,7.47
2018-08-09T10:42:36.314Z,7.60
2018-08-09T10:45:06.023Z,8.70
2018-08-09T10:47:35.089Z,8.40
2018-08-09T10:50:05.735Z,8.60
2018-08-09T10:52:34.629Z,9.10
2018-08-09T10:55:03.705Z,8.73
2018-08-09T10:57:32.812Z,8.70
2018-08-09T11:00:01.586Z,9.10
2018-08-09T11:02:30.299Z,8.60
2018-08-09T11:05:01.171Z,8.70
2018-08-09T11:07:29.946Z,8.93
2018-08-09T11:09:58.522Z,9.07
2018-08-09T11:12:27.874Z,9.40
2018-08-09T11:14:57.393Z,8.93
2018-08-09T11:17:27.128Z,9.67
2018-08-09T11:19:55.820Z,10.07
2018-08-09T11:22:25.533Z,11.40
2018-08-09T11:24:54.935Z,12.73
2018-08-09T11:27:24.665Z,11.33
2018-08-09T11:29:53.317Z,11.90
2018-08-09T11:32:22.298Z,12.47
2018-08-09T11:34:50.988Z,12.33
2018-08-09T11:37:20.492Z,12.10
2018-08-09T11:39:50.777Z,13.40
2018-08-09T11:42:19.518Z,13.40
2018-08-09T11:44:48.808Z,12.80
2018-08-09T11:47:17.415Z,11.67
2018-08-09T11:49:46.217Z,11.47
2018-08-09T11:52:16.211Z,11.90
2018-08-09T11:54:45.076Z,12.30
2018-08-09T11:57:14.459Z,12.30
2018-08-09T11:59:43.170Z,12.97
2018-08-09T12:02:11.931Z,12.20
2018-08-09T12:04:40.948Z,13.67
2018-08-09T12:07:09.862Z,12.67
2018-08-09T12:09:38.778Z,14.30
2018-08-09T12:12:08.627Z,14.30
2018-08-09T12:14:38.389Z,15.43
2018-08-09T12:17:07.520Z,14.03
2018-08-09T12:19:37.126Z,15.93
2018-08-09T12:22:06.900Z,15.97
2018-08-09T12:24:35.334Z,15.30
2018-08-09T12:27:03.923Z,17.00
2018-08-09T12:29:33.198Z,16.67
2018-08-09T12:32:05.833Z,16.97
2018-08-09T12:34:34.545Z,16.37
2018-08-09T12:37:04.437Z,16.63
2018-08-09T12:39:34.788Z,15.90
2018-08-09T12:42:03.163Z,14.90
2018-08-09T12:44:32.948Z,16.87
2018-08-09T12:47:01.749Z,17.80
2018-08-09T12:49:30.686Z,17.20
2018-08-09T12:51:59.502Z,18.00
2018-08-09T12:54:28.487Z,17.73
2018-08-09T12:56:58.034Z,18.20
2018-08-09T12:59:26.899Z,18.90
2018-08-09T13:01:56.527Z,17.87
2018-08-09T13:04:25.909Z,17.53
2018-08-09T13:06:54.846Z,18.57
2018-08-09T13:09:23.283Z,18.80
2018-08-09T13:11:54.074Z,20.23
2018-08-09T13:14:23.594Z,20.93
2018-08-09T13:16:53.893Z,20.23
2018-08-09T13:19:23.259Z,20.43
2018-08-09T13:21:53.433Z,21.33
2018-08-09T13:24:22.724Z,22.23
2018-08-09T13:26:52.145Z,20.63
2018-08-09T13:29:20.919Z,20.23
2018-08-09T13:31:49.977Z,21.07
2018-08-09T13:34:19.084Z,21.30
2018-08-09T13:36:48.291Z,21.30
2018-08-09T13:39:17.808Z,22.90
2018-08-09T13:41:47.732Z,21.60
2018-08-09T13:44:17.032Z,22.63
2018-08-09T13:46:46.779Z,23.27
2018-08-09T13:49:15.543Z,23.20
2018-08-09T13:51:44.315Z,24.87
2018-08-09T13:54:13.985Z,26.53
2018-08-09T13:56:42.718Z,24.27
2018-08-09T13:59:11.398Z,25.30
2018-08-09T14:01:40.354Z,24.90
2018-08-09T14:04:09.757Z,24.13
2018-08-09T14:06:39.079Z,22.27
2018-08-09T14:09:12.076Z,23.27
2018-08-09T14:11:44.955Z,23.13
2018-08-09T14:14:13.779Z,21.70
2018-08-09T14:16:43.979Z,21.77
2018-08-09T14:19:13.484Z,22.97
2018-08-09T14:21:42.824Z,22.00
2018-08-09T14:24:12.375Z,21.97
2018-08-09T14:26:41.700Z,22.47
2018-08-09T14:29:12.588Z,21.90
2018-08-09T14:31:41.346Z,21.70
2018-08-09T14:34:10.001Z,22.43
2018-08-09T14:36:39.868Z,21.70
2018-08-09T14:39:11.064Z,22.10
2018-08-09T14:41:40.742Z,22.17
2018-08-09T14:44:09.570Z,22.60
2018-08-09T14:46:38.487Z,22.87
2018-08-09T14:49:07.275Z,23.00
2018-08-09T14:51:36.142Z,22.80
2018-08-09T14:54:05.223Z,24.40
2018-08-09T14:56:33.961Z,22.80
2018-08-09T14:59:02.857Z,23.13
2018-08-09T15:01:32.417Z,22.20
2018-08-09T15:04:02.200Z,22.60
2018-08-09T15:06:31.873Z,20.93
2018-08-09T15:09:01.751Z,21.47
2018-08-09T15:11:30.805Z,21.73
2018-08-09T15:14:00.940Z,22.60
2018-08-09T15:16:31.673Z,21.03
2018-08-09T15:19:01.225Z,23.00
2018-08-09T15:21:30.957Z,22.73
2018-08-09T15:24:00.514Z,24.10
2018-08-09T15:26:30.431Z,23.47
2018-08-09T15:29:00.103Z,25.20
2018-08-09T15:31:29.872Z,26.30
2018-08-09T15:33:59.462Z,26.27
2018-08-09T15:36:28.216Z,26.43
2018-08-09T15:38:57.505Z,26.83
2018-08-09T15:41:26.383Z,26.83
2018-08-09T15:43:55.680Z,25.03
2018-08-09T15:46:25.247Z,26.20
2018-08-09T15:48:54.389Z,27.17
2018-08-09T15:51:23.251Z,28.80
2018-08-09T15:53:52.079Z,27.10
2018-08-09T15:56:22.049Z,28.40
2018-08-09T15:58:52.110Z,29.17
2018-08-09T16:01:21.029Z,30.30
2018-08-09T16:03:51.075Z,31.10
2018-08-09T16:06:19.778Z,32.40
2018-08-09T16:08:49.531Z,32.70
2018-08-09T16:11:19.222Z,32.90
2018-08-09T16:13:52.303Z,33.83
2018-08-09T16:16:21.233Z,35.90
2018-08-09T16:18:55.107Z,37.57
2018-08-09T16:21:24.871Z,41.93
2018-08-09T16:23:55.285Z,42.43
2018-08-09T16:26:23.759Z,44.80
2018-08-09T16:28:52.645Z,49.90
2018-08-09T16:31:21.734Z,50.47
2018-08-09T16:33:51.784Z,53.33
2018-08-09T16:36:20.555Z,49.50
2018-08-09T16:38:49.448Z,49.27
2018-08-09T16:41:20.576Z,41.50
2018-08-09T16:43:49.375Z,41.40
2018-08-09T16:46:18.275Z,38.20
2018-08-09T16:48:47.504Z,32.57
2018-08-09T16:51:16.878Z,29.47
2018-08-09T16:53:45.480Z,25.13
2018-08-09T16:56:16.299Z,24.30
2018-08-09T16:58:45.857Z,19.30
2018-08-09T17:01:16.139Z,15.83
2018-08-09T17:03:44.877Z,17.30
2018-08-09T17:06:13.593Z,15.97
2018-08-09T17:08:43.164Z,16.07
2018-08-09T17:11:11.516Z,12.20
2018-08-09T17:13:40.105Z,9.20
2018-08-09T17:16:08.843Z,8.40
2018-08-09T17:18:37.819Z,7.80
2018-08-09T17:21:07.202Z,8.20
2018-08-09T17:23:36.797Z,7.27
2018-08-09T17:26:05.083Z,7.30
2018-08-09T17:28:34.393Z,7.60
2018-08-09T17:31:02.987Z,7.10
2018-08-09T17:33:33.445Z,8.50
2018-08-09T17:36:02.439Z,8.50
2018-08-09T17:38:32.324Z,8.97
2018-08-09T17:41:01.947Z,8.20
2018-08-09T17:43:30.359Z,9.10
2018-08-09T17:46:01.549Z,9.43
2018-08-09T17:48:31.288Z,8.67
2018-08-09T17:51:02.733Z,9.33
2018-08-09T17:53:31.829Z,9.90
2018-08-09T17:56:02.206Z,10.17
2018-08-09T17:58:31.124Z,9.27
2018-08-09T18:00:59.744Z,5.23
2018-08-09T18:03:29.779Z,3.80
2018-08-09T18:06:00.530Z,3.33
2018-08-09T18:08:29.596Z,3.53
2018-08-09T18:10:58.286Z,3.93
2018-08-09T18:13:29.526Z,3.40
2018-08-09T18:15:59.538Z,3.37
2018-08-09T18:18:28.296Z,3.90
2018-08-09T18:20:58.500Z,3.30
2018-08-09T18:23:28.703Z,3.17
2018-08-09T18:25:57.518Z,2.50
2018-08-09T18:28:27.011Z,1.63
2018-08-09T18:30:56.608Z,1.70
2018-08-09T18:33:25.548Z,1.97
2018-08-09T18:35:54.248Z,2.07
2018-08-09T18:38:23.956Z,1.80
2018-08-09T18:40:53.084Z,1.87
2018-08-09T18:43:24.562Z,1.70
2018-08-09T18:45:54.225Z,1.80
2018-08-09T18:48:23.202Z,2.20
2018-08-09T18:50:53.821Z,2.33
2018-08-09T18:53:22.366Z,2.77
2018-08-09T18:55:51.047Z,2.80
2018-08-09T18:58:21.779Z,3.23
2018-08-09T19:00:51.635Z,2.53
2018-08-09T19:03:20.180Z,2.00
2018-08-09T19:05:48.924Z,2.37
2018-08-09T19:08:17.983Z,2.67
2018-08-09T19:10:48.219Z,2.90
2018-08-09T19:13:17.093Z,3.63
2018-08-09T19:15:46.702Z,3.80
2018-08-09T19:18:17.394Z,3.70
2018-08-09T19:20:47.185Z,4.07
2018-08-09T19:23:17.140Z,4.60
2018-08-09T19:25:48.541Z,4.77
2018-08-09T19:28:17.136Z,5.13
2018-08-09T19:30:47.037Z,5.03
2018-08-09T19:33:16.795Z,5.10
2018-08-09T19:35:46.759Z,5.43
2018-08-09T19:38:15.525Z,6.50
2018-08-09T19:40:44.037Z,5.40
2018-08-09T19:43:15.052Z,6.50
2018-08-09T19:45:46.845Z,6.30
2018-08-09T19:48:19.700Z,5.77
2018-08-09T19:50:49.502Z,6.93
2018-08-09T19:53:18.287Z,5.33
2018-08-09T19:55:47.612Z,5.30
2018-08-09T19:58:17.784Z,6.23
2018-08-09T20:00:47.287Z,6.60
2018-08-09T20:03:15.856Z,7.00
2018-08-09T20:05:44.616Z,7.37
2018-08-09T20:08:14.375Z,8.90
2018-08-09T20:10:43.278Z,10.70
2018-08-09T20:13:11.784Z,10.80
2018-08-09T20:15:40.628Z,10.07
2018-08-09T20:18:10.117Z,10.23
2018-08-09T20:20:38.914Z,9.63
2018-08-09T20:23:07.908Z,9.43
2018-08-09T20:25:37.371Z,9.37
2018-08-09T20:28:06.414Z,11.40
2018-08-09T20:30:39.554Z,9.47
2018-08-09T20:33:08.680Z,9.17
2018-08-09T20:35:39.139Z,8.70
2018-08-09T20:38:08.147Z,8.80
2018-08-09T20:40:38.029Z,8.00
2018-08-09T20:43:06.928Z,6.87
2018-08-09T20:45:36.485Z,8.07
2018-08-09T20:48:07.701Z,5.90
2018-08-09T20:50:37.502Z,5.67
2018-08-09T20:53:07.730Z,4.50
2018-08-09T20:55:36.925Z,4.67
2018-08-09T20:58:07.336Z,4.90
2018-08-09T21:00:36.642Z,5.10
2018-08-09T21:03:06.404Z,3.80
2018-08-09T21:05:38.392Z,3.33
2018-08-09T21:08:09.816Z,3.80
2018-08-09T21:10:40.113Z,3.30
2018-08-09T21:13:10.748Z,4.17
2018-08-09T21:15:39.670Z,3.67
2018-08-09T21:18:09.508Z,3.80
2018-08-09T21:20:38.529Z,3.70
2018-08-09T21:23:08.452Z,3.20
2018-08-09T21:25:37.120Z,3.80
2018-08-09T21:28:05.942Z,3.10
2018-08-09T21:30:34.598Z,3.43
2018-08-09T21:33:03.459Z,3.53
2018-08-09T21:35:34.379Z,3.97
2018-08-09T21:38:03.322Z,5.23
2018-08-09T21:40:32.829Z,5.50
2018-08-09T21:43:04.890Z,4.00
2018-08-09T21:45:34.276Z,4.63
2018-08-09T21:48:03.207Z,3.83
2018-08-09T21:50:32.100Z,3.90
2018-08-09T21:53:02.797Z,4.10
2018-08-09T21:55:33.679Z,4.03
2018-08-09T21:58:03.119Z,4.00
2018-08-09T22:01:06.376Z,3.27
2018-08-09T22:03:37.068Z,4.10
2018-08-09T22:06:13.818Z,3.20
2018-08-09T22:08:48.401Z,3.27
2018-08-09T22:11:23.924Z,3.07
2018-08-09T22:14:00.496Z,2.63
2018-08-09T22:16:36.027Z,2.87
2018-08-09T22:19:10.270Z,3.57
2018-08-09T22:21:46.175Z,3.23
2018-08-09T22:24:15.745Z,3.10
2018-08-09T22:26:44.781Z,3.03
2018-08-09T22:29:14.326Z,3.57
2018-08-09T22:31:45.376Z,2.50
2018-08-09T22:34:13.966Z,3.20
2018-08-09T22:36:42.758Z,2.87
2018-08-09T22:39:13.209Z,3.00
2018-08-09T22:41:43.604Z,2.53
2018-08-09T22:44:17.340Z,3.03
2018-08-09T22:46:47.603Z,3.30
2018-08-09T22:49:17.734Z,2.47
2018-08-09T22:51:48.429Z,3.13
2018-08-09T22:54:17.831Z,3.47
2018-08-09T22:56:46.330Z,2.57
2018-08-09T22:59:20.051Z,3.27
2018-08-09T23:01:49.425Z,3.00
2018-08-09T23:04:19.303Z,2.60
2018-08-09T23:06:48.601Z,2.77
2018-08-09T23:09:19.525Z,2.77
2018-08-09T23:11:49.821Z,2.83
2018-08-09T23:14:19.793Z,2.50
2018-08-09T23:16:50.600Z,2.50
2018-08-09T23:19:19.468Z,2.90
2018-08-09T23:21:48.171Z,2.83
2018-08-09T23:24:18.410Z,2.90
2018-08-09T23:26:48.647Z,2.40
2018-08-09T23:29:19.321Z,2.43
2018-08-09T23:31:52.358Z,2.60
2018-08-09T23:34:21.357Z,2.00
2018-08-09T23:36:51.057Z,3.03
2018-08-09T23:39:20.933Z,2.70
2018-08-09T23:41:51.525Z,2.60
2018-08-09T23:44:20.435Z,2.40
2018-08-09T23:46:50.377Z,2.50
2018-08-09T23:49:19.403Z,2.63
2018-08-09T23:51:49.225Z,3.10
2018-08-09T23:54:18.056Z,2.33
2018-08-09T23:56:48.750Z,2.90
2018-08-09T23:59:18.578Z,2.43
